sensor_id;sensor_type;location;lat;lon;timestamp;temperature;humidity
18502;DHT22;68437;52.236;5.710;2023-06-24T00:01:36;17.50;99.90
18502;DHT22;68437;52.236;5.710;2023-06-24T00:04:04;17.60;99.90
18502;DHT22;68437;52.236;5.710;2023-06-24T00:06:31;17.60;99.90
18502;DHT22;68437;52.236;5.710;2023-06-24T00:08:57;17.70;99.90
18502;DHT22;68437;52.236;5.710;2023-06-24T00:11:28;17.60;99.90
18502;DHT22;68437;52.236;5.710;2023-06-24T00:13:56;17.50;99.90
18502;DHT22;68437;52.236;5.710;2023-06-24T00:16:26;17.50;99.90
18502;DHT22;68437;52.236;5.710;2023-06-24T00:18:53;17.50;99.90
18502;DHT22;68437;52.236;5.710;2023-06-24T00:21:23;17.50;99.90
18502;DHT22;68437;52.236;5.710;2023-06-24T00:23:55;17.50;99.90
18502;DHT22;68437;52.236;5.710;2023-06-24T00:26:23;17.50;99.90
18502;DHT22;68437;52.236;5.710;2023-06-24T00:28:51;17.50;99.90
18502;DHT22;68437;52.236;5.710;2023-06-24T00:31:19;17.40;99.90
18502;DHT22;68437;52.236;5.710;2023-06-24T00:33:46;17.30;99.90
18502;DHT22;68437;52.236;5.710;2023-06-24T00:36:13;17.30;99.90
18502;DHT22;68437;52.236;5.710;2023-06-24T00:38:40;17.30;99.90
18502;DHT22;68437;52.236;5.710;2023-06-24T00:41:07;17.30;99.90
18502;DHT22;68437;52.236;5.710;2023-06-24T00:43:34;17.30;99.90
18502;DHT22;68437;52.236;5.710;2023-06-24T00:46:02;17.30;99.90
18502;DHT22;68437;52.236;5.710;2023-06-24T00:48:29;17.30;99.90
18502;DHT22;68437;52.236;5.710;2023-06-24T00:50:57;17.20;99.90
18502;DHT22;68437;52.236;5.710;2023-06-24T00:53:25;17.20;99.90
18502;DHT22;68437;52.236;5.710;2023-06-24T00:55:52;17.10;99.90
18502;DHT22;68437;52.236;5.710;2023-06-24T00:58:20;17.10;99.90
18502;DHT22;68437;52.236;5.710;2023-06-24T01:00:49;17.10;99.90
18502;DHT22;68437;52.236;5.710;2023-06-24T01:03:24;17.10;99.90
18502;DHT22;68437;52.236;5.710;2023-06-24T01:05:54;17.10;99.90
18502;DHT22;68437;52.236;5.710;2023-06-24T01:08:20;17.10;99.90
18502;DHT22;68437;52.236;5.710;2023-06-24T01:10:49;17.10;99.90
18502;DHT22;68437;52.236;5.710;2023-06-24T01:13:17;17.10;99.90
18502;DHT22;68437;52.236;5.710;2023-06-24T01:15:44;17.10;99.90
18502;DHT22;68437;52.236;5.710;2023-06-24T01:18:20;17.00;99.90
18502;DHT22;68437;52.236;5.710;2023-06-24T01:20:52;17.00;99.90
18502;DHT22;68437;52.236;5.710;2023-06-24T01:23:42;16.90;99.90
18502;DHT22;68437;52.236;5.710;2023-06-24T01:26:25;16.70;99.90
18502;DHT22;68437;52.236;5.710;2023-06-24T01:29:15;16.70;99.90
18502;DHT22;68437;52.236;5.710;2023-06-24T01:31:50;16.70;99.90
18502;DHT22;68437;52.236;5.710;2023-06-24T01:34:23;16.70;99.90
18502;DHT22;68437;52.236;5.710;2023-06-24T01:37:03;16.70;99.90
18502;DHT22;68437;52.236;5.710;2023-06-24T01:39:33;16.60;99.90
18502;DHT22;68437;52.236;5.710;2023-06-24T01:42:06;16.50;99.90
18502;DHT22;68437;52.236;5.710;2023-06-24T01:44:35;16.40;99.90
18502;DHT22;68437;52.236;5.710;2023-06-24T01:47:06;16.30;99.90
18502;DHT22;68437;52.236;5.710;2023-06-24T01:49:36;16.20;99.90
18502;DHT22;68437;52.236;5.710;2023-06-24T01:52:05;16.30;99.90
18502;DHT22;68437;52.236;5.710;2023-06-24T01:54:34;16.30;99.90
18502;DHT22;68437;52.236;5.710;2023-06-24T01:57:02;16.30;99.90
18502;DHT22;68437;52.236;5.710;2023-06-24T01:59:31;16.30;99.90
18502;DHT22;68437;52.236;5.710;2023-06-24T02:02:00;16.40;99.90
18502;DHT22;68437;52.236;5.710;2023-06-24T02:04:31;16.50;99.90
18502;DHT22;68437;52.236;5.710;2023-06-24T02:07:00;16.50;99.90
18502;DHT22;68437;52.236;5.710;2023-06-24T02:09:29;16.50;99.90
18502;DHT22;68437;52.236;5.710;2023-06-24T02:11:58;16.40;99.90
18502;DHT22;68437;52.236;5.710;2023-06-24T02:14:27;16.40;99.90
18502;DHT22;68437;52.236;5.710;2023-06-24T02:16:57;16.40;99.90
18502;DHT22;68437;52.236;5.710;2023-06-24T02:19:29;16.40;99.90
18502;DHT22;68437;52.236;5.710;2023-06-24T02:21:58;16.30;99.90
18502;DHT22;68437;52.236;5.710;2023-06-24T02:24:26;16.30;99.90
18502;DHT22;68437;52.236;5.710;2023-06-24T02:26:55;16.20;99.90
18502;DHT22;68437;52.236;5.710;2023-06-24T02:29:22;16.20;99.90
18502;DHT22;68437;52.236;5.710;2023-06-24T02:31:51;16.20;99.90
18502;DHT22;68437;52.236;5.710;2023-06-24T02:34:18;16.20;99.90
18502;DHT22;68437;52.236;5.710;2023-06-24T02:36:45;16.20;99.90
18502;DHT22;68437;52.236;5.710;2023-06-24T02:39:14;16.20;99.90
18502;DHT22;68437;52.236;5.710;2023-06-24T02:41:40;16.20;99.90
18502;DHT22;68437;52.236;5.710;2023-06-24T02:44:07;16.10;99.90
18502;DHT22;68437;52.236;5.710;2023-06-24T02:46:36;16.10;99.90
18502;DHT22;68437;52.236;5.710;2023-06-24T02:49:03;16.10;99.90
18502;DHT22;68437;52.236;5.710;2023-06-24T02:51:31;16.10;99.90
18502;DHT22;68437;52.236;5.710;2023-06-24T02:53:58;16.00;99.90
18502;DHT22;68437;52.236;5.710;2023-06-24T02:56:26;15.90;99.90
18502;DHT22;68437;52.236;5.710;2023-06-24T02:58:54;15.90;99.90
18502;DHT22;68437;52.236;5.710;2023-06-24T03:01:21;15.90;99.90
18502;DHT22;68437;52.236;5.710;2023-06-24T03:03:52;15.90;99.90
18502;DHT22;68437;52.236;5.710;2023-06-24T03:06:21;15.90;99.90
18502;DHT22;68437;52.236;5.710;2023-06-24T03:08:49;15.90;99.90
18502;DHT22;68437;52.236;5.710;2023-06-24T03:11:16;15.90;99.90
18502;DHT22;68437;52.236;5.710;2023-06-24T03:13:45;15.90;99.90
18502;DHT22;68437;52.236;5.710;2023-06-24T03:16:12;15.90;99.90
18502;DHT22;68437;52.236;5.710;2023-06-24T03:18:41;15.80;99.90
18502;DHT22;68437;52.236;5.710;2023-06-24T03:21:08;15.80;99.90
18502;DHT22;68437;52.236;5.710;2023-06-24T03:23:35;15.80;99.90
18502;DHT22;68437;52.236;5.710;2023-06-24T03:26:02;15.80;99.90
18502;DHT22;68437;52.236;5.710;2023-06-24T03:28:29;15.80;99.90
18502;DHT22;68437;52.236;5.710;2023-06-24T03:30:58;15.70;99.90
18502;DHT22;68437;52.236;5.710;2023-06-24T03:33:25;15.70;99.90
18502;DHT22;68437;52.236;5.710;2023-06-24T03:35:52;15.70;99.90
18502;DHT22;68437;52.236;5.710;2023-06-24T03:38:20;15.70;99.90
18502;DHT22;68437;52.236;5.710;2023-06-24T03:40:48;15.70;99.90
18502;DHT22;68437;52.236;5.710;2023-06-24T03:43:14;15.60;99.90
18502;DHT22;68437;52.236;5.710;2023-06-24T03:45:41;15.70;99.90
18502;DHT22;68437;52.236;5.710;2023-06-24T03:48:10;15.60;99.90
18502;DHT22;68437;52.236;5.710;2023-06-24T03:50:37;15.70;99.90
18502;DHT22;68437;52.236;5.710;2023-06-24T03:53:04;15.70;99.90
18502;DHT22;68437;52.236;5.710;2023-06-24T03:55:31;15.60;99.90
18502;DHT22;68437;52.236;5.710;2023-06-24T03:57:58;15.60;99.90
18502;DHT22;68437;52.236;5.710;2023-06-24T04:00:24;15.60;99.90
18502;DHT22;68437;52.236;5.710;2023-06-24T04:02:51;15.60;99.90
18502;DHT22;68437;52.236;5.710;2023-06-24T04:05:20;15.70;99.90
18502;DHT22;68437;52.236;5.710;2023-06-24T04:07:48;15.70;99.90
18502;DHT22;68437;52.236;5.710;2023-06-24T04:10:17;15.70;99.90
18502;DHT22;68437;52.236;5.710;2023-06-24T04:12:44;15.70;99.90
18502;DHT22;68437;52.236;5.710;2023-06-24T04:15:12;15.80;99.90
18502;DHT22;68437;52.236;5.710;2023-06-24T04:17:38;16.30;99.90
18502;DHT22;68437;52.236;5.710;2023-06-24T04:20:06;17.10;99.90
18502;DHT22;68437;52.236;5.710;2023-06-24T04:22:36;18.10;99.90
18502;DHT22;68437;52.236;5.710;2023-06-24T04:25:03;18.70;99.90
18502;DHT22;68437;52.236;5.710;2023-06-24T04:27:31;18.90;99.90
18502;DHT22;68437;52.236;5.710;2023-06-24T04:29:58;18.70;99.90
18502;DHT22;68437;52.236;5.710;2023-06-24T04:32:25;18.30;99.90
18502;DHT22;68437;52.236;5.710;2023-06-24T04:34:52;18.00;99.90
18502;DHT22;68437;52.236;5.710;2023-06-24T04:37:19;18.10;99.90
18502;DHT22;68437;52.236;5.710;2023-06-24T04:39:47;18.30;99.90
18502;DHT22;68437;52.236;5.710;2023-06-24T04:42:14;18.80;99.90
18502;DHT22;68437;52.236;5.710;2023-06-24T04:44:41;19.40;99.90
18502;DHT22;68437;52.236;5.710;2023-06-24T04:47:08;20.00;99.90
18502;DHT22;68437;52.236;5.710;2023-06-24T04:49:35;20.20;99.90
18502;DHT22;68437;52.236;5.710;2023-06-24T04:52:02;19.80;99.90
18502;DHT22;68437;52.236;5.710;2023-06-24T04:54:29;19.20;99.90
18502;DHT22;68437;52.236;5.710;2023-06-24T04:56:57;18.70;99.90
18502;DHT22;68437;52.236;5.710;2023-06-24T04:59:24;18.40;99.90
18502;DHT22;68437;52.236;5.710;2023-06-24T05:01:51;18.20;99.90
18502;DHT22;68437;52.236;5.710;2023-06-24T05:04:18;18.10;99.90
18502;DHT22;68437;52.236;5.710;2023-06-24T05:06:45;18.10;99.90
18502;DHT22;68437;52.236;5.710;2023-06-24T05:09:12;18.10;99.90
18502;DHT22;68437;52.236;5.710;2023-06-24T05:11:39;18.00;99.90
18502;DHT22;68437;52.236;5.710;2023-06-24T05:14:08;18.00;99.90
18502;DHT22;68437;52.236;5.710;2023-06-24T05:16:34;18.10;99.90
18502;DHT22;68437;52.236;5.710;2023-06-24T05:19:01;18.10;99.90
18502;DHT22;68437;52.236;5.710;2023-06-24T05:21:28;18.20;99.90
18502;DHT22;68437;52.236;5.710;2023-06-24T05:23:55;18.20;99.90
18502;DHT22;68437;52.236;5.710;2023-06-24T05:26:22;18.40;99.90
18502;DHT22;68437;52.236;5.710;2023-06-24T05:28:49;18.50;99.90
18502;DHT22;68437;52.236;5.710;2023-06-24T05:31:17;18.60;99.90
18502;DHT22;68437;52.236;5.710;2023-06-24T05:33:44;18.80;99.90
18502;DHT22;68437;52.236;5.710;2023-06-24T05:36:11;18.80;99.90
18502;DHT22;68437;52.236;5.710;2023-06-24T05:38:38;18.80;99.90
18502;DHT22;68437;52.236;5.710;2023-06-24T05:41:05;18.90;99.90
18502;DHT22;68437;52.236;5.710;2023-06-24T05:43:32;18.90;99.90
18502;DHT22;68437;52.236;5.710;2023-06-24T05:45:58;19.00;99.90
18502;DHT22;68437;52.236;5.710;2023-06-24T05:48:27;19.00;99.90
18502;DHT22;68437;52.236;5.710;2023-06-24T05:50:54;19.10;99.90
18502;DHT22;68437;52.236;5.710;2023-06-24T05:53:21;19.10;99.90
18502;DHT22;68437;52.236;5.710;2023-06-24T05:55:48;19.20;99.90
18502;DHT22;68437;52.236;5.710;2023-06-24T05:58:14;19.20;99.90
18502;DHT22;68437;52.236;5.710;2023-06-24T06:00:41;19.30;99.90
18502;DHT22;68437;52.236;5.710;2023-06-24T06:03:08;19.20;99.90
18502;DHT22;68437;52.236;5.710;2023-06-24T06:05:37;19.30;99.90
18502;DHT22;68437;52.236;5.710;2023-06-24T06:08:04;19.40;99.90
18502;DHT22;68437;52.236;5.710;2023-06-24T06:10:31;19.40;99.90
18502;DHT22;68437;52.236;5.710;2023-06-24T06:12:58;19.50;99.90
18502;DHT22;68437;52.236;5.710;2023-06-24T06:15:25;19.60;99.90
18502;DHT22;68437;52.236;5.710;2023-06-24T06:17:52;19.70;99.90
18502;DHT22;68437;52.236;5.710;2023-06-24T06:20:19;19.90;99.90
18502;DHT22;68437;52.236;5.710;2023-06-24T06:22:47;20.00;99.90
18502;DHT22;68437;52.236;5.710;2023-06-24T06:25:16;20.00;99.90
18502;DHT22;68437;52.236;5.710;2023-06-24T06:27:43;19.90;99.90
18502;DHT22;68437;52.236;5.710;2023-06-24T06:30:11;20.00;99.90
18502;DHT22;68437;52.236;5.710;2023-06-24T06:32:38;19.90;99.90
18502;DHT22;68437;52.236;5.710;2023-06-24T06:35:06;19.90;99.90
18502;DHT22;68437;52.236;5.710;2023-06-24T06:37:33;20.00;99.90
18502;DHT22;68437;52.236;5.710;2023-06-24T06:40:02;20.00;99.90
18502;DHT22;68437;52.236;5.710;2023-06-24T06:42:29;20.10;99.90
18502;DHT22;68437;52.236;5.710;2023-06-24T06:44:56;20.20;99.90
18502;DHT22;68437;52.236;5.710;2023-06-24T06:47:23;20.20;99.90
18502;DHT22;68437;52.236;5.710;2023-06-24T06:49:50;20.30;99.90
18502;DHT22;68437;52.236;5.710;2023-06-24T06:52:17;20.30;99.90
18502;DHT22;68437;52.236;5.710;2023-06-24T06:54:44;20.40;99.90
18502;DHT22;68437;52.236;5.710;2023-06-24T06:57:12;20.50;99.90
18502;DHT22;68437;52.236;5.710;2023-06-24T06:59:39;20.60;99.90
18502;DHT22;68437;52.236;5.710;2023-06-24T07:02:06;20.60;99.90
18502;DHT22;68437;52.236;5.710;2023-06-24T07:04:33;20.70;99.90
18502;DHT22;68437;52.236;5.710;2023-06-24T07:06:59;20.70;99.90
18502;DHT22;68437;52.236;5.710;2023-06-24T07:09:26;20.70;99.90
18502;DHT22;68437;52.236;5.710;2023-06-24T07:11:53;20.80;99.90
18502;DHT22;68437;52.236;5.710;2023-06-24T07:14:21;20.80;99.90
18502;DHT22;68437;52.236;5.710;2023-06-24T07:16:48;20.90;99.90
18502;DHT22;68437;52.236;5.710;2023-06-24T07:19:15;21.00;99.90
18502;DHT22;68437;52.236;5.710;2023-06-24T07:21:42;21.10;99.90
18502;DHT22;68437;52.236;5.710;2023-06-24T07:24:09;21.20;99.90
18502;DHT22;68437;52.236;5.710;2023-06-24T07:26:36;21.30;99.90
18502;DHT22;68437;52.236;5.710;2023-06-24T07:29:06;21.40;99.90
18502;DHT22;68437;52.236;5.710;2023-06-24T07:31:34;21.50;99.90
18502;DHT22;68437;52.236;5.710;2023-06-24T07:34:01;21.50;99.90
18502;DHT22;68437;52.236;5.710;2023-06-24T07:36:28;21.50;99.90
18502;DHT22;68437;52.236;5.710;2023-06-24T07:38:55;21.50;99.90
18502;DHT22;68437;52.236;5.710;2023-06-24T07:41:22;21.40;99.90
18502;DHT22;68437;52.236;5.710;2023-06-24T07:43:49;21.40;99.90
18502;DHT22;68437;52.236;5.710;2023-06-24T07:46:16;21.50;99.90
18502;DHT22;68437;52.236;5.710;2023-06-24T07:48:45;21.60;99.90
18502;DHT22;68437;52.236;5.710;2023-06-24T07:51:12;21.70;99.90
18502;DHT22;68437;52.236;5.710;2023-06-24T07:53:39;21.70;99.90
18502;DHT22;68437;52.236;5.710;2023-06-24T07:56:05;21.70;99.90
18502;DHT22;68437;52.236;5.710;2023-06-24T07:58:34;21.80;99.90
18502;DHT22;68437;52.236;5.710;2023-06-24T08:01:02;22.00;99.90
18502;DHT22;68437;52.236;5.710;2023-06-24T08:03:29;22.20;99.90
18502;DHT22;68437;52.236;5.710;2023-06-24T08:05:57;22.30;99.90
18502;DHT22;68437;52.236;5.710;2023-06-24T08:08:24;22.50;99.90
18502;DHT22;68437;52.236;5.710;2023-06-24T08:10:51;22.80;99.90
18502;DHT22;68437;52.236;5.710;2023-06-24T08:13:18;22.90;99.90
18502;DHT22;68437;52.236;5.710;2023-06-24T08:15:45;23.10;99.90
18502;DHT22;68437;52.236;5.710;2023-06-24T08:18:11;23.20;99.90
18502;DHT22;68437;52.236;5.710;2023-06-24T08:20:38;23.30;99.90
18502;DHT22;68437;52.236;5.710;2023-06-24T08:23:06;23.30;99.90
18502;DHT22;68437;52.236;5.710;2023-06-24T08:25:35;23.30;99.90
18502;DHT22;68437;52.236;5.710;2023-06-24T08:28:02;23.30;99.90
18502;DHT22;68437;52.236;5.710;2023-06-24T08:30:29;23.30;99.90
18502;DHT22;68437;52.236;5.710;2023-06-24T08:32:55;23.30;99.90
18502;DHT22;68437;52.236;5.710;2023-06-24T08:35:22;23.50;99.90
18502;DHT22;68437;52.236;5.710;2023-06-24T08:37:49;23.70;99.90
18502;DHT22;68437;52.236;5.710;2023-06-24T08:40:17;23.80;99.90
18502;DHT22;68437;52.236;5.710;2023-06-24T08:42:45;23.90;99.90
18502;DHT22;68437;52.236;5.710;2023-06-24T08:45:11;23.90;99.90
18502;DHT22;68437;52.236;5.710;2023-06-24T08:47:39;23.90;99.90
18502;DHT22;68437;52.236;5.710;2023-06-24T08:50:11;23.80;99.90
18502;DHT22;68437;52.236;5.710;2023-06-24T08:52:42;24.00;99.90
18502;DHT22;68437;52.236;5.710;2023-06-24T08:55:12;24.20;99.90
18502;DHT22;68437;52.236;5.710;2023-06-24T08:57:41;24.40;99.90
18502;DHT22;68437;52.236;5.710;2023-06-24T09:00:09;24.60;99.90
18502;DHT22;68437;52.236;5.710;2023-06-24T09:02:36;24.80;99.90
18502;DHT22;68437;52.236;5.710;2023-06-24T09:05:04;24.90;99.90
18502;DHT22;68437;52.236;5.710;2023-06-24T09:07:31;24.80;99.90
18502;DHT22;68437;52.236;5.710;2023-06-24T09:09:58;24.70;99.90
18502;DHT22;68437;52.236;5.710;2023-06-24T09:12:26;24.70;99.90
18502;DHT22;68437;52.236;5.710;2023-06-24T09:14:54;24.70;99.90
18502;DHT22;68437;52.236;5.710;2023-06-24T09:17:21;24.70;99.90
18502;DHT22;68437;52.236;5.710;2023-06-24T09:19:48;24.80;99.90
18502;DHT22;68437;52.236;5.710;2023-06-24T09:22:15;24.90;99.90
18502;DHT22;68437;52.236;5.710;2023-06-24T09:24:44;25.10;99.90
18502;DHT22;68437;52.236;5.710;2023-06-24T09:27:13;25.30;99.90
18502;DHT22;68437;52.236;5.710;2023-06-24T09:29:41;25.40;99.90
18502;DHT22;68437;52.236;5.710;2023-06-24T09:32:10;25.50;99.90
18502;DHT22;68437;52.236;5.710;2023-06-24T09:34:37;25.60;99.90
18502;DHT22;68437;52.236;5.710;2023-06-24T09:37:04;25.70;99.90
18502;DHT22;68437;52.236;5.710;2023-06-24T09:39:36;25.80;99.90
18502;DHT22;68437;52.236;5.710;2023-06-24T09:42:05;25.60;99.90
18502;DHT22;68437;52.236;5.710;2023-06-24T09:44:33;25.60;99.90
18502;DHT22;68437;52.236;5.710;2023-06-24T09:47:00;25.80;99.90
18502;DHT22;68437;52.236;5.710;2023-06-24T09:49:29;25.90;99.90
18502;DHT22;68437;52.236;5.710;2023-06-24T09:51:57;26.10;99.90
18502;DHT22;68437;52.236;5.710;2023-06-24T09:54:26;26.20;99.90
18502;DHT22;68437;52.236;5.710;2023-06-24T09:56:55;26.20;99.90
18502;DHT22;68437;52.236;5.710;2023-06-24T09:59:25;26.30;99.90
18502;DHT22;68437;52.236;5.710;2023-06-24T10:01:54;26.50;99.90
18502;DHT22;68437;52.236;5.710;2023-06-24T10:04:21;26.60;99.90
18502;DHT22;68437;52.236;5.710;2023-06-24T10:06:50;26.60;99.90
18502;DHT22;68437;52.236;5.710;2023-06-24T10:09:17;26.60;99.90
18502;DHT22;68437;52.236;5.710;2023-06-24T10:11:45;26.80;99.90
18502;DHT22;68437;52.236;5.710;2023-06-24T10:14:12;27.00;99.90
18502;DHT22;68437;52.236;5.710;2023-06-24T10:16:40;27.10;99.90
18502;DHT22;68437;52.236;5.710;2023-06-24T10:19:07;27.20;99.90
18502;DHT22;68437;52.236;5.710;2023-06-24T10:21:49;27.30;99.90
18502;DHT22;68437;52.236;5.710;2023-06-24T10:24:30;27.30;99.90
18502;DHT22;68437;52.236;5.710;2023-06-24T10:27:08;27.50;99.90
18502;DHT22;68437;52.236;5.710;2023-06-24T10:29:36;27.60;99.90
18502;DHT22;68437;52.236;5.710;2023-06-24T10:32:04;27.50;99.90
18502;DHT22;68437;52.236;5.710;2023-06-24T10:34:39;27.60;99.90
18502;DHT22;68437;52.236;5.710;2023-06-24T10:37:10;27.60;99.90
18502;DHT22;68437;52.236;5.710;2023-06-24T10:39:48;27.60;99.90
18502;DHT22;68437;52.236;5.710;2023-06-24T10:42:32;27.50;99.90
18502;DHT22;68437;52.236;5.710;2023-06-24T10:45:01;27.60;99.90
18502;DHT22;68437;52.236;5.710;2023-06-24T10:47:29;27.70;99.90
18502;DHT22;68437;52.236;5.710;2023-06-24T10:49:56;27.80;99.90
18502;DHT22;68437;52.236;5.710;2023-06-24T10:52:24;27.90;99.90
18502;DHT22;68437;52.236;5.710;2023-06-24T10:54:53;27.90;99.90
18502;DHT22;68437;52.236;5.710;2023-06-24T10:57:24;27.80;99.90
18502;DHT22;68437;52.236;5.710;2023-06-24T10:59:52;27.80;99.90
18502;DHT22;68437;52.236;5.710;2023-06-24T11:02:20;27.80;99.90
18502;DHT22;68437;52.236;5.710;2023-06-24T11:04:48;27.90;99.90
18502;DHT22;68437;52.236;5.710;2023-06-24T11:07:17;28.20;99.90
18502;DHT22;68437;52.236;5.710;2023-06-24T11:09:49;28.50;99.90
18502;DHT22;68437;52.236;5.710;2023-06-24T11:12:18;28.60;99.90
18502;DHT22;68437;52.236;5.710;2023-06-24T11:14:45;28.70;99.90
18502;DHT22;68437;52.236;5.710;2023-06-24T11:17:12;28.80;99.90
18502;DHT22;68437;52.236;5.710;2023-06-24T11:19:39;28.80;99.90
18502;DHT22;68437;52.236;5.710;2023-06-24T11:22:07;29.10;99.90
18502;DHT22;68437;52.236;5.710;2023-06-24T11:24:34;29.30;99.90
18502;DHT22;68437;52.236;5.710;2023-06-24T11:27:03;29.20;99.90
18502;DHT22;68437;52.236;5.710;2023-06-24T11:29:33;29.20;99.90
18502;DHT22;68437;52.236;5.710;2023-06-24T11:32:01;28.80;99.90
18502;DHT22;68437;52.236;5.710;2023-06-24T11:34:28;28.30;99.90
18502;DHT22;68437;52.236;5.710;2023-06-24T11:36:56;28.00;99.90
18502;DHT22;68437;52.236;5.710;2023-06-24T11:39:24;28.00;99.90
18502;DHT22;68437;52.236;5.710;2023-06-24T11:41:51;28.40;99.90
18502;DHT22;68437;52.236;5.710;2023-06-24T11:44:19;28.60;99.90
18502;DHT22;68437;52.236;5.710;2023-06-24T11:46:48;28.80;99.90
18502;DHT22;68437;52.236;5.710;2023-06-24T11:49:15;28.40;99.90
18502;DHT22;68437;52.236;5.710;2023-06-24T11:51:46;28.00;99.90
18502;DHT22;68437;52.236;5.710;2023-06-24T11:54:15;27.70;99.90
18502;DHT22;68437;52.236;5.710;2023-06-24T11:56:43;27.40;99.90
18502;DHT22;68437;52.236;5.710;2023-06-24T11:59:18;27.30;99.90
18502;DHT22;68437;52.236;5.710;2023-06-24T12:01:45;27.10;99.90
18502;DHT22;68437;52.236;5.710;2023-06-24T12:04:19;26.90;99.90
18502;DHT22;68437;52.236;5.710;2023-06-24T12:06:47;26.80;99.90
18502;DHT22;68437;52.236;5.710;2023-06-24T12:09:14;26.60;99.90
18502;DHT22;68437;52.236;5.710;2023-06-24T12:11:42;26.50;99.90
18502;DHT22;68437;52.236;5.710;2023-06-24T12:14:08;26.60;99.90
18502;DHT22;68437;52.236;5.710;2023-06-24T12:16:35;26.90;99.90
18502;DHT22;68437;52.236;5.710;2023-06-24T12:19:03;27.30;99.90
18502;DHT22;68437;52.236;5.710;2023-06-24T12:21:31;27.90;99.90
18502;DHT22;68437;52.236;5.710;2023-06-24T12:23:58;28.30;99.90
18502;DHT22;68437;52.236;5.710;2023-06-24T12:26:24;28.10;99.90
18502;DHT22;68437;52.236;5.710;2023-06-24T12:28:53;28.00;99.90
18502;DHT22;68437;52.236;5.710;2023-06-24T12:31:20;27.70;99.90
18502;DHT22;68437;52.236;5.710;2023-06-24T12:33:47;27.80;99.90
18502;DHT22;68437;52.236;5.710;2023-06-24T12:36:14;28.00;99.90
18502;DHT22;68437;52.236;5.710;2023-06-24T12:38:42;28.40;99.90
18502;DHT22;68437;52.236;5.710;2023-06-24T12:41:09;28.40;99.90
18502;DHT22;68437;52.236;5.710;2023-06-24T12:43:36;28.10;99.90
18502;DHT22;68437;52.236;5.710;2023-06-24T12:46:03;27.80;99.90
18502;DHT22;68437;52.236;5.710;2023-06-24T12:48:30;27.30;99.90
18502;DHT22;68437;52.236;5.710;2023-06-24T12:50:57;27.00;99.90
18502;DHT22;68437;52.236;5.710;2023-06-24T12:53:24;26.80;99.90
18502;DHT22;68437;52.236;5.710;2023-06-24T12:55:52;26.70;99.90
18502;DHT22;68437;52.236;5.710;2023-06-24T12:58:19;26.70;99.90
18502;DHT22;68437;52.236;5.710;2023-06-24T13:00:46;26.70;99.90
18502;DHT22;68437;52.236;5.710;2023-06-24T13:03:13;26.80;99.90
18502;DHT22;68437;52.236;5.710;2023-06-24T13:05:40;26.70;99.90
18502;DHT22;68437;52.236;5.710;2023-06-24T13:08:07;26.90;99.90
18502;DHT22;68437;52.236;5.710;2023-06-24T13:10:36;26.90;99.90
18502;DHT22;68437;52.236;5.710;2023-06-24T13:13:05;26.80;99.90
18502;DHT22;68437;52.236;5.710;2023-06-24T13:15:32;26.80;99.90
18502;DHT22;68437;52.236;5.710;2023-06-24T13:17:59;26.80;99.90
18502;DHT22;68437;52.236;5.710;2023-06-24T13:20:27;26.80;99.90
18502;DHT22;68437;52.236;5.710;2023-06-24T13:22:54;26.80;99.90
18502;DHT22;68437;52.236;5.710;2023-06-24T13:25:21;27.10;99.90
18502;DHT22;68437;52.236;5.710;2023-06-24T13:27:47;27.40;99.90
18502;DHT22;68437;52.236;5.710;2023-06-24T13:30:16;27.50;99.90
18502;DHT22;68437;52.236;5.710;2023-06-24T13:32:43;27.50;99.90
18502;DHT22;68437;52.236;5.710;2023-06-24T13:35:10;27.50;99.90
18502;DHT22;68437;52.236;5.710;2023-06-24T13:37:37;27.50;99.90
18502;DHT22;68437;52.236;5.710;2023-06-24T13:40:06;27.70;99.90
18502;DHT22;68437;52.236;5.710;2023-06-24T13:42:33;28.10;99.90
18502;DHT22;68437;52.236;5.710;2023-06-24T13:45:00;28.40;99.90
18502;DHT22;68437;52.236;5.710;2023-06-24T13:47:30;28.40;99.90
18502;DHT22;68437;52.236;5.710;2023-06-24T13:49:57;28.40;99.90
18502;DHT22;68437;52.236;5.710;2023-06-24T13:52:24;28.30;99.90
18502;DHT22;68437;52.236;5.710;2023-06-24T13:54:51;28.40;99.90
18502;DHT22;68437;52.236;5.710;2023-06-24T13:57:18;28.30;99.90
18502;DHT22;68437;52.236;5.710;2023-06-24T13:59:45;28.30;99.90
18502;DHT22;68437;52.236;5.710;2023-06-24T14:02:12;28.20;99.90
18502;DHT22;68437;52.236;5.710;2023-06-24T14:04:40;28.00;99.90
18502;DHT22;68437;52.236;5.710;2023-06-24T14:07:08;27.80;99.90
18502;DHT22;68437;52.236;5.710;2023-06-24T14:09:35;27.70;99.90
18502;DHT22;68437;52.236;5.710;2023-06-24T14:12:02;27.70;99.90
18502;DHT22;68437;52.236;5.710;2023-06-24T14:14:29;27.90;99.90
18502;DHT22;68437;52.236;5.710;2023-06-24T14:16:56;28.00;99.90
18502;DHT22;68437;52.236;5.710;2023-06-24T14:19:22;27.90;99.90
18502;DHT22;68437;52.236;5.710;2023-06-24T14:21:51;27.90;99.90
18502;DHT22;68437;52.236;5.710;2023-06-24T14:24:18;27.90;99.90
18502;DHT22;68437;52.236;5.710;2023-06-24T14:26:45;27.90;99.90
18502;DHT22;68437;52.236;5.710;2023-06-24T14:29:15;27.80;99.90
18502;DHT22;68437;52.236;5.710;2023-06-24T14:31:41;27.90;99.90
18502;DHT22;68437;52.236;5.710;2023-06-24T14:34:08;27.80;99.90
18502;DHT22;68437;52.236;5.710;2023-06-24T14:36:35;27.60;99.90
18502;DHT22;68437;52.236;5.710;2023-06-24T14:39:04;27.40;99.90
18502;DHT22;68437;52.236;5.710;2023-06-24T14:41:31;27.30;99.90
18502;DHT22;68437;52.236;5.710;2023-06-24T14:43:58;27.20;99.90
18502;DHT22;68437;52.236;5.710;2023-06-24T14:46:25;27.30;99.90
18502;DHT22;68437;52.236;5.710;2023-06-24T14:48:51;27.30;99.90
18502;DHT22;68437;52.236;5.710;2023-06-24T14:51:18;27.40;99.90
18502;DHT22;68437;52.236;5.710;2023-06-24T14:53:45;27.40;99.90
18502;DHT22;68437;52.236;5.710;2023-06-24T14:56:13;27.40;99.90
18502;DHT22;68437;52.236;5.710;2023-06-24T14:58:40;27.40;99.90
18502;DHT22;68437;52.236;5.710;2023-06-24T15:01:07;27.50;99.90
18502;DHT22;68437;52.236;5.710;2023-06-24T15:03:34;27.40;99.90
18502;DHT22;68437;52.236;5.710;2023-06-24T15:06:01;27.40;99.90
18502;DHT22;68437;52.236;5.710;2023-06-24T15:08:28;27.40;99.90
18502;DHT22;68437;52.236;5.710;2023-06-24T15:10:55;27.40;99.90
18502;DHT22;68437;52.236;5.710;2023-06-24T15:13:23;27.40;99.90
18502;DHT22;68437;52.236;5.710;2023-06-24T15:15:50;27.40;99.90
18502;DHT22;68437;52.236;5.710;2023-06-24T15:18:21;27.40;99.90
18502;DHT22;68437;52.236;5.710;2023-06-24T15:20:48;27.60;99.90
18502;DHT22;68437;52.236;5.710;2023-06-24T15:23:15;27.60;99.90
18502;DHT22;68437;52.236;5.710;2023-06-24T15:25:41;27.70;99.90
18502;DHT22;68437;52.236;5.710;2023-06-24T15:28:11;27.70;99.90
18502;DHT22;68437;52.236;5.710;2023-06-24T15:30:40;27.80;99.90
18502;DHT22;68437;52.236;5.710;2023-06-24T15:33:06;27.80;99.90
18502;DHT22;68437;52.236;5.710;2023-06-24T15:35:34;27.90;99.90